Rio Blanco — D5BO9 — position and weather

sailwx.info

Track history (hours):
 
Tides and Currents Weather Stations Pressure Air Temp Water Temp Dewpoint Dewpoint Depression Visibility Wind Speed Wind Dir Waves Ship Positions

Rio Blanco

Last reported at 2016-Jun-27 19:30 UTC. Time now 2016-Jun-28 17:02 UTC.
Position N 33°13' E 033°35'.

Length 286 m; draft 10 m.

Type: Ship (hazmat cat A). MMSI: 636092395.

Date/timePositionNaut miles runAvg speedWind from/ knotsBaromVisibWave heightAir tempDewpointWater temp
2016-Jun-27 19:30N 33°13' E 033°35'3517.5
2016-Jun-27 17:31N 32°57' E 032°58'194 9.7
2016-Jun-26 21:31N 31°09' E 029°48'0 0.0
2016-Jun-26 19:22N 31°09' E 029°48'0 0.0
2016-Jun-26 18:31N 31°09' E 029°48'0 0.0
2016-Jun-26 16:13N 31°09' E 029°48'0 0.0
2016-Jun-26 14:31N 31°09' E 029°48'0 0.0
2016-Jun-26 12:31N 31°09' E 029°48'0 0.0
2016-Jun-26 09:31N 31°09' E 029°48'0 0.0
2016-Jun-26 08:25N 31°09' E 029°48'0 0.0
2016-Jun-26 02:19N 31°09' E 029°48'0 0.0
2016-Jun-25 23:25N 31°09' E 029°48'0 0.0
2016-Jun-25 22:22N 31°09' E 029°48'0 0.0
2016-Jun-25 21:31N 31°09' E 029°48'0 0.0
2016-Jun-25 12:16N 31°09' E 029°48'1 0.2
2016-Jun-25 08:30N 31°09' E 029°48'3 3.6
2016-Jun-25 07:33N 31°12' E 029°49'1 1.5
2016-Jun-25 06:33N 31°14' E 029°49'2 0.8
2016-Jun-25 04:33N 31°12' E 029°48'7 6.5
2016-Jun-25 03:30N 31°17' E 029°42'1111.2
2016-Jun-25 02:33N 31°21' E 029°30'1515.3
2016-Jun-25 01:34N 31°26' E 029°13'2717.4
2016-Jun-25 00:00N 31°30' E 028°42'916.3 300 / 101007.0 5.4 25.922.6
2016-Jun-24 23:27N 31°38' E 028°37'1415.5
2016-Jun-24 22:33N 31°43' E 028°22'1515.3
2016-Jun-24 21:33N 31°48' E 028°05'1615.6
2016-Jun-24 20:33N 31°53' E 027°48'31215.2
2016-Jun-24 00:00N 33°42' E 022°00'32915.3 300 / 111012.4 5.4 24.422.3
2016-Jun-23 02:33N 35°41' E 015°47'1615.8
2016-Jun-23 01:33N 35°46' E 015°29'1615.6
2016-Jun-23 00:33N 35°52' E 015°11'916.6
2016-Jun-23 00:00N 35°54' E 015°00'715.3 340 / 51016.910.8 21.415.7
2016-Jun-22 23:33N 35°58' E 014°54'1615.8
2016-Jun-22 22:34N 36°04' E 014°35'1615.6
2016-Jun-22 21:33N 36°10' E 014°18'1515.2
2016-Jun-22 20:34N 36°16' E 014°01'1515.1
2016-Jun-22 19:33N 36°23' E 013°43'1515.5
2016-Jun-22 18:33N 36°30' E 013°26'1616.2
2016-Jun-22 17:34N 36°37' E 013°08'1616.2
2016-Jun-22 16:34N 36°44' E 012°50'1616.0
2016-Jun-22 15:33N 36°51' E 012°32'1616.0
2016-Jun-22 14:33N 36°58' E 012°14'6215.4
2016-Jun-22 10:33N 37°23' E 011°03'16515.6
2016-Jun-22 00:00N 37°36' E 007°36'10115.4 350 / 61021.927.0 20.716.1
2016-Jun-21 17:26N 37°25' E 005°30'19815.3
2016-Jun-21 04:33N 37°02' E 001°23'1515.2
2016-Jun-21 03:33N 37°00' E 001°04'1414.4
2016-Jun-21 02:34N 36°57' E 000°47'1414.4
2016-Jun-21 01:33N 36°53' E 000°30'1414.3
2016-Jun-21 00:33N 36°49' E 000°12'1221.0
2016-Jun-21 00:00N 36°42' E 000°00'410.0 080 / 211020.810.8 22.416.0
2016-Jun-20 23:34N 36°43' W 000°05'1615.6
2016-Jun-20 22:33N 36°39' W 000°24'1615.6
2016-Jun-20 21:34N 36°35' W 000°43'1615.7
2016-Jun-20 20:33N 36°31' W 001°01'1615.8
2016-Jun-20 19:33N 36°26' W 001°20'1615.4
2016-Jun-20 18:31N 36°21' W 001°39'1415.2
2016-Jun-20 17:34N 36°18' W 001°57'1515.2
2016-Jun-20 16:34N 36°15' W 002°15'1514.9
2016-Jun-20 15:34N 36°13' W 002°34'1515.1
2016-Jun-20 14:34N 36°12' W 002°52'1514.5
2016-Jun-20 13:33N 36°11' W 003°10'1414.3
2016-Jun-20 12:34N 36°09' W 003°28'7615.3
2016-Jun-20 07:34N 36°01' W 005°02'1615.6
2016-Jun-20 06:34N 35°59' W 005°21'3115.7
2016-Jun-20 04:34N 35°54' W 005°59'1914.2
2016-Jun-20 03:15N 35°56' W 006°22'1014.7
2016-Jun-20 02:33N 35°58' W 006°34'1414.5
2016-Jun-20 01:33N 36°02' W 006°52'2014.6
2016-Jun-20 00:10N 36°07' W 007°16'212.9
2016-Jun-20 00:00N 36°06' W 007°18'818.2 999 / 31020.927.0 17.713.2
2016-Jun-19 23:33N 36°10' W 007°26'1514.9
2016-Jun-19 22:34N 36°14' W 007°44'1514.9
2016-Jun-19 21:33N 36°18' W 008°02'1514.7
2016-Jun-19 20:34N 36°22' W 008°20'1514.7
2016-Jun-19 19:34N 36°25' W 008°37'1514.6
2016-Jun-19 18:34N 36°29' W 008°55'1514.7
2016-Jun-19 17:33N 36°33' W 009°12'1414.2
2016-Jun-19 16:34N 36°42' W 009°27'1514.6
2016-Jun-19 15:33N 36°55' W 009°35'1515.2
2016-Jun-19 14:33N 37°10' W 009°39'1616.1
2016-Jun-19 13:33N 37°26' W 009°42'1616.2
2016-Jun-19 12:33N 37°42' W 009°46'1616.2
2016-Jun-19 11:33N 37°57' W 009°51'1616.0
2016-Jun-19 10:34N 38°13' W 009°56'1615.8
2016-Jun-19 09:33N 38°28' W 010°01'1515.5
2016-Jun-19 08:34N 38°43' W 010°06'1715.7
2016-Jun-19 07:29N 38°60' W 010°06'1515.7
2016-Jun-19 06:33N 39°15' W 010°06'1515.5
2016-Jun-19 05:33N 39°30' W 010°05'8415.1
2016-Jun-19 00:00N 40°54' W 010°06'   360 / 141029.627.0 1.017.713.0
Track history (hours):
 
Tides and Currents Weather Stations Pressure Air Temp Water Temp Dewpoint Dewpoint Depression Visibility Wind Speed Wind Dir Waves Ship Positions

Rio Blanco

Last reported at 2016-Jun-27 19:30 UTC. Time now 2016-Jun-28 17:02 UTC.
Position N 33°13' E 033°35'.

Length 286 m; draft 10 m.

Type: Ship (hazmat cat A). MMSI: 636092395.

Date/timePositionNaut miles runAvg speedWind from/ knotsBaromVisibWave heightAir tempDewpointWater temp
2016-Jun-27 19:30N 33°13' E 033°35'3517.5
2016-Jun-27 17:31N 32°57' E 032°58'194 9.7
2016-Jun-26 21:31N 31°09' E 029°48'0 0.0
2016-Jun-26 19:22N 31°09' E 029°48'0 0.0
2016-Jun-26 18:31N 31°09' E 029°48'0 0.0
2016-Jun-26 16:13N 31°09' E 029°48'0 0.0
2016-Jun-26 14:31N 31°09' E 029°48'0 0.0
2016-Jun-26 12:31N 31°09' E 029°48'0 0.0
2016-Jun-26 09:31N 31°09' E 029°48'0 0.0
2016-Jun-26 08:25N 31°09' E 029°48'0 0.0
2016-Jun-26 02:19N 31°09' E 029°48'0 0.0
2016-Jun-25 23:25N 31°09' E 029°48'0 0.0
2016-Jun-25 22:22N 31°09' E 029°48'0 0.0
2016-Jun-25 21:31N 31°09' E 029°48'0 0.0
2016-Jun-25 12:16N 31°09' E 029°48'1 0.2
2016-Jun-25 08:30N 31°09' E 029°48'3 3.6
2016-Jun-25 07:33N 31°12' E 029°49'1 1.5
2016-Jun-25 06:33N 31°14' E 029°49'2 0.8
2016-Jun-25 04:33N 31°12' E 029°48'7 6.5
2016-Jun-25 03:30N 31°17' E 029°42'1111.2
2016-Jun-25 02:33N 31°21' E 029°30'1515.3
2016-Jun-25 01:34N 31°26' E 029°13'2717.4
2016-Jun-25 00:00N 31°30' E 028°42'916.3 300 / 101007.0 5.4 25.922.6
2016-Jun-24 23:27N 31°38' E 028°37'1415.5
2016-Jun-24 22:33N 31°43' E 028°22'1515.3
2016-Jun-24 21:33N 31°48' E 028°05'1615.6
2016-Jun-24 20:33N 31°53' E 027°48'31215.2
2016-Jun-24 00:00N 33°42' E 022°00'32915.3 300 / 111012.4 5.4 24.422.3
2016-Jun-23 02:33N 35°41' E 015°47'1615.8
2016-Jun-23 01:33N 35°46' E 015°29'1615.6
2016-Jun-23 00:33N 35°52' E 015°11'916.6
2016-Jun-23 00:00N 35°54' E 015°00'715.3 340 / 51016.910.8 21.415.7
2016-Jun-22 23:33N 35°58' E 014°54'1615.8
2016-Jun-22 22:34N 36°04' E 014°35'1615.6
2016-Jun-22 21:33N 36°10' E 014°18'1515.2
2016-Jun-22 20:34N 36°16' E 014°01'1515.1
2016-Jun-22 19:33N 36°23' E 013°43'1515.5
2016-Jun-22 18:33N 36°30' E 013°26'1616.2
2016-Jun-22 17:34N 36°37' E 013°08'1616.2
2016-Jun-22 16:34N 36°44' E 012°50'1616.0
2016-Jun-22 15:33N 36°51' E 012°32'1616.0
2016-Jun-22 14:33N 36°58' E 012°14'6215.4
2016-Jun-22 10:33N 37°23' E 011°03'16515.6
2016-Jun-22 00:00N 37°36' E 007°36'10115.4 350 / 61021.927.0 20.716.1
2016-Jun-21 17:26N 37°25' E 005°30'19815.3
2016-Jun-21 04:33N 37°02' E 001°23'1515.2
2016-Jun-21 03:33N 37°00' E 001°04'1414.4
2016-Jun-21 02:34N 36°57' E 000°47'1414.4
2016-Jun-21 01:33N 36°53' E 000°30'1414.3
2016-Jun-21 00:33N 36°49' E 000°12'1221.0
2016-Jun-21 00:00N 36°42' E 000°00'410.0 080 / 211020.810.8 22.416.0
2016-Jun-20 23:34N 36°43' W 000°05'1615.6
2016-Jun-20 22:33N 36°39' W 000°24'1615.6
2016-Jun-20 21:34N 36°35' W 000°43'1615.7
2016-Jun-20 20:33N 36°31' W 001°01'1615.8
2016-Jun-20 19:33N 36°26' W 001°20'1615.4
2016-Jun-20 18:31N 36°21' W 001°39'1415.2
2016-Jun-20 17:34N 36°18' W 001°57'1515.2
2016-Jun-20 16:34N 36°15' W 002°15'1514.9
2016-Jun-20 15:34N 36°13' W 002°34'1515.1
2016-Jun-20 14:34N 36°12' W 002°52'1514.5
2016-Jun-20 13:33N 36°11' W 003°10'1414.3
2016-Jun-20 12:34N 36°09' W 003°28'7615.3
2016-Jun-20 07:34N 36°01' W 005°02'1615.6
2016-Jun-20 06:34N 35°59' W 005°21'3115.7
2016-Jun-20 04:34N 35°54' W 005°59'1914.2
2016-Jun-20 03:15N 35°56' W 006°22'1014.7
2016-Jun-20 02:33N 35°58' W 006°34'1414.5
2016-Jun-20 01:33N 36°02' W 006°52'2014.6
2016-Jun-20 00:10N 36°07' W 007°16'212.9
2016-Jun-20 00:00N 36°06' W 007°18'818.2 999 / 31020.927.0 17.713.2
2016-Jun-19 23:33N 36°10' W 007°26'1514.9
2016-Jun-19 22:34N 36°14' W 007°44'1514.9
2016-Jun-19 21:33N 36°18' W 008°02'1514.7
2016-Jun-19 20:34N 36°22' W 008°20'1514.7
2016-Jun-19 19:34N 36°25' W 008°37'1514.6
2016-Jun-19 18:34N 36°29' W 008°55'1514.7
2016-Jun-19 17:33N 36°33' W 009°12'1414.2
2016-Jun-19 16:34N 36°42' W 009°27'1514.6
2016-Jun-19 15:33N 36°55' W 009°35'1515.2
2016-Jun-19 14:33N 37°10' W 009°39'1616.1
2016-Jun-19 13:33N 37°26' W 009°42'1616.2
2016-Jun-19 12:33N 37°42' W 009°46'1616.2
2016-Jun-19 11:33N 37°57' W 009°51'1616.0
2016-Jun-19 10:34N 38°13' W 009°56'1615.8
2016-Jun-19 09:33N 38°28' W 010°01'1515.5
2016-Jun-19 08:34N 38°43' W 010°06'1715.7
2016-Jun-19 07:29N 38°60' W 010°06'1515.7
2016-Jun-19 06:33N 39°15' W 010°06'1515.5
2016-Jun-19 05:33N 39°30' W 010°05'8415.1
2016-Jun-19 00:00N 40°54' W 010°06'   360 / 141029.627.0 1.017.713.0

Dump ship's entire track history